createdAt,value
2022-08-02T00:01:04.731Z,100396.53
2022-08-02T00:03:33.128Z,100394.88
2022-08-02T00:06:01.778Z,100394.73
2022-08-02T00:08:30.022Z,100395.97
2022-08-02T00:11:17.045Z,100393.45
2022-08-02T00:14:04.892Z,100394.41
2022-08-02T00:16:51.720Z,100391.50
2022-08-02T00:19:38.837Z,100387.13
2022-08-02T00:22:07.500Z,100388.14
2022-08-02T00:24:35.954Z,100388.23
2022-08-02T00:27:04.997Z,100385.62
2022-08-02T00:29:50.474Z,100384.19
2022-08-02T00:32:23.561Z,100385.98
2022-08-02T00:34:52.528Z,100392.18
2022-08-02T00:37:20.735Z,100393.55
2022-08-02T00:39:48.956Z,100399.16
2022-08-02T00:42:17.516Z,100399.30
2022-08-02T00:44:45.859Z,100399.09
2022-08-02T00:47:19.526Z,100400.29
2022-08-02T00:49:48.429Z,100399.27
2022-08-02T00:52:16.707Z,100398.20
2022-08-02T00:54:44.974Z,100397.92
2022-08-02T00:57:13.464Z,100399.48
2022-08-02T00:59:42.283Z,100400.91
2022-08-02T01:02:10.866Z,100397.35
2022-08-02T01:04:40.542Z,100403.14
2022-08-02T01:07:12.351Z,100401.12
2022-08-02T01:09:45.824Z,100398.13
2022-08-02T01:12:14.733Z,100398.02
2022-08-02T01:14:48.240Z,100397.15
2022-08-02T01:17:50.865Z,100399.46
2022-08-02T01:20:25.318Z,100395.84
2022-08-02T01:23:50.896Z,100392.14
2022-08-02T01:26:29.094Z,100398.66
2022-08-02T01:29:29.392Z,100400.52
2022-08-02T01:32:12.338Z,100399.03
2022-08-02T01:34:57.747Z,100400.61
2022-08-02T01:37:41.690Z,100398.14
2022-08-02T01:40:14.271Z,100399.39
2022-08-02T01:42:47.595Z,100405.93
2022-08-02T01:45:18.907Z,100408.20
2022-08-02T01:47:49.947Z,100409.61
2022-08-02T01:50:23.679Z,100405.88
2022-08-02T01:52:55.242Z,100406.79
2022-08-02T01:55:58.121Z,100405.74
2022-08-02T01:58:27.705Z,100405.69
2022-08-02T02:00:58.389Z,100406.33
2022-08-02T02:03:29.432Z,100405.27
2022-08-02T02:06:00.036Z,100407.84
2022-08-02T02:08:33.275Z,100413.44
2022-08-02T02:12:11.499Z,100414.97
2022-08-02T02:13:53.505Z,100414.08
2022-08-02T02:16:23.217Z,100420.10
2022-08-02T02:18:53.676Z,100417.05
2022-08-02T02:21:22.396Z,100423.13
2022-08-02T02:23:51.128Z,100422.67
2022-08-02T02:26:20.896Z,100423.11
2022-08-02T02:29:04.813Z,100421.25
2022-08-02T02:31:37.380Z,100420.91
2022-08-02T02:34:10.678Z,100426.05
2022-08-02T02:36:47.923Z,100423.17
2022-08-02T02:39:20.909Z,100428.77
2022-08-02T02:41:51.607Z,100422.39
2022-08-02T02:44:21.781Z,100429.23
2022-08-02T02:46:52.998Z,100431.06
2022-08-02T02:49:23.297Z,100434.15
2022-08-02T02:51:53.257Z,100439.98
2022-08-02T02:54:33.787Z,100442.71
2022-08-02T02:57:05.979Z,100443.80
2022-08-02T02:59:42.554Z,100441.98
2022-08-02T03:02:19.229Z,100446.11
2022-08-02T03:04:55.856Z,100444.45
2022-08-02T03:07:26.418Z,100443.06
2022-08-02T03:09:55.358Z,100444.98
2022-08-02T03:12:30.958Z,100447.30
2022-08-02T03:15:04.441Z,100449.86
2022-08-02T03:17:44.515Z,100450.17
2022-08-02T03:20:18.505Z,100448.30
2022-08-02T03:22:47.662Z,100450.82
2022-08-02T03:25:17.530Z,100454.48
2022-08-02T03:27:46.688Z,100458.47
2022-08-02T03:30:15.626Z,100457.53
2022-08-02T03:32:47.194Z,100462.02
2022-08-02T03:35:23.346Z,100461.50
2022-08-02T03:37:56.033Z,100459.23
2022-08-02T03:40:25.581Z,100461.55
2022-08-02T03:42:54.748Z,100455.83
2022-08-02T03:45:24.659Z,100461.48
2022-08-02T03:47:53.218Z,100465.84
2022-08-02T03:50:25.787Z,100472.07
2022-08-02T03:52:54.789Z,100471.17
2022-08-02T03:55:23.443Z,100473.46
2022-08-02T03:57:52.001Z,100477.35
2022-08-02T04:00:23.191Z,100478.96
2022-08-02T04:02:52.592Z,100479.27
2022-08-02T04:05:20.906Z,100475.61
2022-08-02T04:08:33.995Z,100478.63
2022-08-02T04:10:56.732Z,100478.56
2022-08-02T04:13:35.844Z,100483.67
2022-08-02T04:16:15.042Z,100485.50
2022-08-02T04:18:55.883Z,100487.89
2022-08-02T04:21:49.075Z,100492.98
2022-08-02T04:24:18.608Z,100497.41
2022-08-02T04:26:49.089Z,100498.40
2022-08-02T04:29:19.527Z,100498.61
2022-08-02T04:31:48.636Z,100499.02
2022-08-02T04:34:17.593Z,100499.92
2022-08-02T04:36:47.172Z,100506.64
2022-08-02T04:39:15.681Z,100509.02
2022-08-02T04:41:46.507Z,100514.09
2022-08-02T04:44:15.409Z,100515.81
2022-08-02T04:46:44.809Z,100515.27
2022-08-02T04:49:13.388Z,100512.58
2022-08-02T04:51:43.620Z,100516.53
2022-08-02T04:54:12.345Z,100514.48
2022-08-02T04:56:41.476Z,100521.63
2022-08-02T04:59:09.906Z,100519.33
2022-08-02T05:01:42.764Z,100517.16
2022-08-02T05:04:11.368Z,100524.63
2022-08-02T05:06:40.005Z,100527.51
2022-08-02T05:09:08.735Z,100532.27
2022-08-02T05:11:37.482Z,100533.95
2022-08-02T05:14:06.403Z,100536.48
2022-08-02T05:16:34.615Z,100538.60
2022-08-02T05:19:03.554Z,100541.00
2022-08-02T05:21:32.195Z,100547.66
2022-08-02T05:24:00.736Z,100546.23
2022-08-02T05:26:29.312Z,100546.50
2022-08-02T05:28:57.665Z,100551.97
2022-08-02T05:31:25.977Z,100553.36
2022-08-02T05:33:54.452Z,100555.90
2022-08-02T05:36:22.933Z,100558.41
2022-08-02T05:38:51.951Z,100557.48
2022-08-02T05:41:21.077Z,100559.98
2022-08-02T05:43:49.403Z,100558.70
2022-08-02T05:46:17.671Z,100559.67
2022-08-02T05:48:46.106Z,100563.02
2022-08-02T05:51:32.963Z,100564.55
2022-08-02T05:54:05.241Z,100566.95
2022-08-02T05:56:38.936Z,100565.13
2022-08-02T05:59:18.054Z,100562.52
2022-08-02T06:01:49.275Z,100562.21
2022-08-02T06:04:30.833Z,100566.40
2022-08-02T06:07:02.934Z,100567.77
2022-08-02T06:09:32.927Z,100570.63
2022-08-02T06:12:03.538Z,100573.16
2022-08-02T06:14:33.740Z,100573.16
2022-08-02T06:17:05.839Z,100574.15
2022-08-02T06:19:51.696Z,100574.16
2022-08-02T06:22:35.943Z,100573.16
2022-08-02T06:25:06.461Z,100566.48
2022-08-02T06:27:41.427Z,100579.65
2022-08-02T06:30:11.273Z,100579.67
2022-08-02T06:32:39.933Z,100588.08
2022-08-02T06:35:08.923Z,100587.05
2022-08-02T06:37:48.375Z,100587.83
2022-08-02T06:41:04.834Z,100584.13
2022-08-02T06:43:45.116Z,100585.20
2022-08-02T06:46:37.766Z,100589.37
2022-08-02T06:49:02.593Z,100588.92
2022-08-02T06:51:31.309Z,100588.25
2022-08-02T06:53:59.803Z,100590.84
2022-08-02T06:56:28.285Z,100593.58
2022-08-02T06:58:56.768Z,100600.00
2022-08-02T07:01:25.034Z,100598.45
2022-08-02T07:03:53.569Z,100608.59
2022-08-02T07:06:22.415Z,100611.34
2022-08-02T07:09:18.036Z,100609.36
2022-08-02T07:11:39.403Z,100608.41
2022-08-02T07:14:07.727Z,100614.27
2022-08-02T07:16:35.897Z,100614.71
2022-08-02T07:19:04.581Z,100616.48
2022-08-02T07:21:56.980Z,100622.02
2022-08-02T07:24:21.469Z,100620.99
2022-08-02T07:27:09.874Z,100623.95
2022-08-02T07:29:46.518Z,100631.34
2022-08-02T07:32:22.185Z,100629.14
2022-08-02T07:34:53.419Z,100628.29
2022-08-02T07:37:35.822Z,100634.01
2022-08-02T07:40:13.854Z,100636.25
2022-08-02T07:42:43.857Z,100637.21
2022-08-02T07:45:13.669Z,100635.90
2022-08-02T07:47:44.207Z,100633.34
2022-08-02T07:50:15.116Z,100631.63
2022-08-02T07:52:44.947Z,100628.77
2022-08-02T07:55:15.092Z,100629.42
2022-08-02T07:57:46.399Z,100627.52
2022-08-02T08:00:17.669Z,100625.84
2022-08-02T08:02:47.476Z,100621.52
2022-08-02T08:05:16.073Z,100622.46
2022-08-02T08:07:44.570Z,100629.20
2022-08-02T08:10:12.977Z,100630.73
2022-08-02T08:12:41.260Z,100631.11
2022-08-02T08:15:10.931Z,100633.41
2022-08-02T08:17:39.395Z,100634.80
2022-08-02T08:20:08.855Z,100639.88
2022-08-02T08:22:38.696Z,100639.98
2022-08-02T08:25:07.312Z,100639.34
2022-08-02T08:27:36.122Z,100642.38
2022-08-02T08:30:05.201Z,100641.77
2022-08-02T08:32:33.706Z,100646.89
2022-08-02T08:35:03.731Z,100644.14
2022-08-02T08:37:40.950Z,100638.57
2022-08-02T08:40:11.478Z,100643.61
2022-08-02T08:42:40.500Z,100644.04
2022-08-02T08:45:09.665Z,100647.42
2022-08-02T08:47:42.713Z,100647.01
2022-08-02T08:50:21.532Z,100647.50
2022-08-02T08:53:05.053Z,100646.25
2022-08-02T08:55:37.230Z,100652.32
2022-08-02T08:58:05.740Z,100650.49
2022-08-02T09:00:36.091Z,100647.13
2022-08-02T09:03:06.581Z,100651.78
2022-08-02T09:05:36.966Z,100651.73
2022-08-02T09:08:06.676Z,100648.92
2022-08-02T09:10:40.100Z,100656.53
2022-08-02T09:13:38.995Z,100657.20
2022-08-02T09:16:12.597Z,100655.41
2022-08-02T09:18:45.022Z,100657.02
2022-08-02T09:21:15.511Z,100654.71
2022-08-02T09:23:48.141Z,100663.23
2022-08-02T09:26:22.196Z,100666.65
2022-08-02T09:28:52.792Z,100658.21
2022-08-02T09:31:23.146Z,100661.31
2022-08-02T09:33:57.459Z,100660.74
2022-08-02T09:36:27.425Z,100666.88
2022-08-02T09:39:01.861Z,100663.59
2022-08-02T09:41:34.143Z,100666.94
2022-08-02T09:44:06.969Z,100665.13
2022-08-02T09:46:38.813Z,100669.05
2022-08-02T09:49:19.132Z,100672.11
2022-08-02T09:51:47.819Z,100675.17
2022-08-02T09:54:19.459Z,100671.26
2022-08-02T09:56:50.659Z,100670.28
2022-08-02T09:59:21.739Z,100664.70
2022-08-02T10:01:58.964Z,100659.51
2022-08-02T10:04:34.409Z,100658.36
2022-08-02T10:07:22.517Z,100652.96
2022-08-02T10:09:52.429Z,100652.18
2022-08-02T10:12:23.189Z,100651.16
2022-08-02T10:14:52.230Z,100642.43
2022-08-02T10:17:22.067Z,100643.21
2022-08-02T10:20:03.180Z,100641.70
2022-08-02T10:22:34.534Z,100637.40
2022-08-02T10:25:07.103Z,100633.63
2022-08-02T10:28:02.486Z,100634.56
2022-08-02T10:30:27.491Z,100636.09
2022-08-02T10:32:58.031Z,100638.95
2022-08-02T10:35:27.176Z,100638.05
2022-08-02T10:38:04.393Z,100636.27
2022-08-02T10:40:55.481Z,100629.88
2022-08-02T10:43:33.201Z,100634.48
2022-08-02T10:46:21.136Z,100640.69
2022-08-02T10:49:37.503Z,100643.73
2022-08-02T10:52:07.886Z,100645.83
2022-08-02T10:54:39.618Z,100648.88
2022-08-02T10:57:24.641Z,100649.70
2022-08-02T11:00:01.364Z,100646.17
2022-08-02T11:02:38.708Z,100635.27
2022-08-02T11:05:16.314Z,100633.81
2022-08-02T11:07:50.385Z,100634.35
2022-08-02T11:10:34.111Z,100643.52
2022-08-02T11:13:08.439Z,100645.85
2022-08-02T11:15:54.052Z,100640.36
2022-08-02T11:18:24.527Z,100644.70
2022-08-02T11:21:28.627Z,100643.15
2022-08-02T11:24:17.198Z,100643.38
2022-08-02T11:26:45.832Z,100646.15
2022-08-02T11:29:15.590Z,100649.76
2022-08-02T11:31:47.620Z,100650.81
2022-08-02T11:34:36.449Z,100652.01
2022-08-02T11:37:05.965Z,100651.09
2022-08-02T11:39:34.601Z,100656.72
2022-08-02T11:42:03.494Z,100657.91
2022-08-02T11:44:41.653Z,100655.16
2022-08-02T11:47:10.390Z,100653.48
2022-08-02T11:49:38.991Z,100653.98
2022-08-02T11:52:11.534Z,100662.05
2022-08-02T11:54:42.686Z,100665.90
2022-08-02T11:57:21.620Z,100672.26
2022-08-02T11:59:53.205Z,100677.45
2022-08-02T12:02:30.158Z,100681.48
2022-08-02T12:05:02.136Z,100685.05
2022-08-02T12:07:36.931Z,100683.39
2022-08-02T12:10:18.754Z,100678.50
2022-08-02T12:13:05.745Z,100682.39
2022-08-02T12:15:41.816Z,100683.65
2022-08-02T12:18:31.384Z,100680.55
2022-08-02T12:21:00.507Z,100670.88
2022-08-02T12:23:29.791Z,100676.81
2022-08-02T12:26:03.752Z,100679.35
2022-08-02T12:28:40.756Z,100677.67
2022-08-02T12:31:11.531Z,100681.58
2022-08-02T12:33:54.098Z,100687.44
2022-08-02T12:36:28.071Z,100688.73
2022-08-02T12:38:59.294Z,100681.57
2022-08-02T12:41:31.764Z,100673.41
2022-08-02T12:44:01.180Z,100681.52
2022-08-02T12:46:31.782Z,100685.23
2022-08-02T12:49:18.339Z,100684.25
2022-08-02T12:51:58.999Z,100683.20
2022-08-02T12:54:32.834Z,100689.13
2022-08-02T12:57:12.936Z,100689.85
2022-08-02T12:59:45.275Z,100685.30
2022-08-02T13:02:14.982Z,100683.75
2022-08-02T13:04:49.933Z,100680.88
2022-08-02T13:07:20.045Z,100682.05
2022-08-02T13:09:50.264Z,100679.96
2022-08-02T13:12:18.609Z,100678.23
2022-08-02T13:14:47.332Z,100683.65
2022-08-02T13:17:15.905Z,100682.74
2022-08-02T13:19:44.108Z,100676.88
2022-08-02T13:22:13.363Z,100679.88
2022-08-02T13:24:55.883Z,100675.43
2022-08-02T13:27:26.840Z,100673.02
2022-08-02T13:29:57.356Z,100675.90
2022-08-02T13:32:28.185Z,100671.96
2022-08-02T13:34:58.244Z,100662.42
2022-08-02T13:37:26.520Z,100662.14
2022-08-02T13:40:20.170Z,100662.31
2022-08-02T13:42:43.905Z,100664.90
2022-08-02T13:45:14.433Z,100666.14
2022-08-02T13:48:03.469Z,100668.47
2022-08-02T13:50:34.162Z,100663.96
2022-08-02T13:53:02.374Z,100664.62
2022-08-02T13:55:31.145Z,100665.29
2022-08-02T13:58:00.316Z,100662.16
2022-08-02T14:00:35.410Z,100663.67
2022-08-02T14:03:11.948Z,100653.35
2022-08-02T14:05:48.535Z,100649.64
2022-08-02T14:08:19.395Z,100649.93
2022-08-02T14:10:51.612Z,100653.00
2022-08-02T14:13:20.460Z,100654.61
2022-08-02T14:15:49.202Z,100655.84
2022-08-02T14:18:17.990Z,100656.65
2022-08-02T14:20:47.189Z,100652.23
2022-08-02T14:23:15.539Z,100651.61
2022-08-02T14:25:43.824Z,100646.84
2022-08-02T14:28:12.707Z,100644.91
2022-08-02T14:30:40.907Z,100643.13
2022-08-02T14:33:09.180Z,100645.34
2022-08-02T14:35:38.356Z,100640.89
2022-08-02T14:38:07.268Z,100643.11
2022-08-02T14:40:36.234Z,100643.79
2022-08-02T14:43:05.334Z,100642.95
2022-08-02T14:45:36.725Z,100645.24
2022-08-02T14:48:12.250Z,100645.27
2022-08-02T14:50:40.746Z,100648.95
2022-08-02T14:53:12.098Z,100647.26
2022-08-02T14:55:43.175Z,100643.80
2022-08-02T14:58:12.309Z,100647.23
2022-08-02T15:00:41.583Z,100655.95
2022-08-02T15:03:12.021Z,100657.83
2022-08-02T15:05:40.605Z,100656.02
2022-08-02T15:08:08.986Z,100656.12
2022-08-02T15:10:38.182Z,100657.46
2022-08-02T15:13:07.429Z,100659.70
2022-08-02T15:15:43.050Z,100661.41
2022-08-02T15:18:14.531Z,100666.80
2022-08-02T15:20:45.375Z,100666.80
2022-08-02T15:23:37.101Z,100662.70
2022-08-02T15:26:06.261Z,100660.77
2022-08-02T15:28:35.333Z,100659.20
2022-08-02T15:31:03.607Z,100657.54
2022-08-02T15:33:32.089Z,100652.97
2022-08-02T15:36:01.129Z,100652.64
2022-08-02T15:38:29.619Z,100653.27
2022-08-02T15:40:58.114Z,100657.31
2022-08-02T15:43:26.580Z,100660.37
2022-08-02T15:45:55.111Z,100663.27
2022-08-02T15:48:23.411Z,100657.36
2022-08-02T15:50:52.382Z,100659.68
2022-08-02T15:53:20.735Z,100656.33
2022-08-02T15:56:04.223Z,100656.28
2022-08-02T15:58:44.213Z,100655.70
2022-08-02T16:01:13.535Z,100653.70
2022-08-02T16:03:42.250Z,100651.40
2022-08-02T16:06:10.534Z,100651.02
2022-08-02T16:08:39.027Z,100646.85
2022-08-02T16:11:23.086Z,100649.08
2022-08-02T16:13:54.148Z,100648.77
2022-08-02T16:16:25.250Z,100650.60
2022-08-02T16:18:54.243Z,100652.66
2022-08-02T16:21:23.811Z,100654.77
2022-08-02T16:23:59.200Z,100655.17
2022-08-02T16:26:32.070Z,100654.83
2022-08-02T16:29:01.921Z,100655.88
2022-08-02T16:31:30.768Z,100658.14
2022-08-02T16:33:59.220Z,100652.59
2022-08-02T16:36:28.623Z,100648.40
2022-08-02T16:38:57.116Z,100649.48
2022-08-02T16:41:45.568Z,100648.91
2022-08-02T16:44:15.569Z,100653.36
2022-08-02T16:46:45.588Z,100656.84
2022-08-02T16:50:05.874Z,100663.08
2022-08-02T16:52:03.600Z,100661.95
2022-08-02T16:54:31.919Z,100667.94
2022-08-02T16:57:00.605Z,100664.89
2022-08-02T16:59:34.027Z,100666.73
2022-08-02T17:02:17.908Z,100667.26
2022-08-02T17:04:47.586Z,100667.00
2022-08-02T17:08:07.385Z,100661.95
2022-08-02T17:10:09.515Z,100663.85
2022-08-02T17:12:39.254Z,100660.53
2022-08-02T17:16:17.259Z,100664.58
2022-08-02T17:17:57.823Z,100661.70
2022-08-02T17:20:26.464Z,100662.73
2022-08-02T17:22:54.841Z,100663.58
2022-08-02T17:25:24.769Z,100664.63
2022-08-02T17:27:55.874Z,100664.18
2022-08-02T17:30:26.627Z,100665.96
2022-08-02T17:32:59.238Z,100671.16
2022-08-02T17:35:39.958Z,100668.48
2022-08-02T17:38:26.103Z,100664.31
2022-08-02T17:40:55.883Z,100665.66
2022-08-02T17:43:29.006Z,100663.82
2022-08-02T17:46:01.004Z,100660.11
2022-08-02T17:48:55.069Z,100660.04
2022-08-02T17:52:49.188Z,100662.30
2022-08-02T17:54:28.740Z,100658.18
2022-08-02T17:56:58.891Z,100663.42
2022-08-02T17:59:30.871Z,100662.98
2022-08-02T18:02:11.520Z,100663.96
2022-08-02T18:04:40.078Z,100659.61
2022-08-02T18:07:10.285Z,100664.22
2022-08-02T18:09:43.511Z,100661.79
2022-08-02T18:12:15.041Z,100664.89
2022-08-02T18:14:49.066Z,100662.23
2022-08-02T18:17:17.835Z,100670.14
2022-08-02T18:19:57.497Z,100673.38
2022-08-02T18:22:28.020Z,100674.80
2022-08-02T18:24:56.531Z,100672.39
2022-08-02T18:27:24.970Z,100679.98
2022-08-02T18:30:04.043Z,100682.23
2022-08-02T18:33:53.938Z,100685.73
2022-08-02T18:35:23.616Z,100686.88
2022-08-02T18:37:57.173Z,100692.73
2022-08-02T18:40:30.076Z,100694.45
2022-08-02T18:42:58.970Z,100691.45
2022-08-02T18:45:42.075Z,100686.66
2022-08-02T18:48:20.556Z,100683.95
2022-08-02T18:50:50.548Z,100685.14
2022-08-02T18:53:39.296Z,100687.00
2022-08-02T18:56:08.083Z,100691.39
2022-08-02T18:58:36.490Z,100689.52
2022-08-02T19:01:14.842Z,100687.58
2022-08-02T19:03:50.919Z,100686.61
2022-08-02T19:06:20.212Z,100684.84
2022-08-02T19:09:05.350Z,100683.91
2022-08-02T19:11:40.935Z,100692.39
2022-08-02T19:14:10.455Z,100693.05
2022-08-02T19:16:38.944Z,100695.11
2022-08-02T19:19:07.360Z,100694.02
2022-08-02T19:22:17.276Z,100696.64
2022-08-02T19:24:25.029Z,100695.22
2022-08-02T19:26:55.067Z,100699.35
2022-08-02T19:29:25.183Z,100699.36
2022-08-02T19:32:42.422Z,100699.64
2022-08-02T19:35:04.035Z,100700.75
2022-08-02T19:37:53.194Z,100700.41
2022-08-02T19:40:24.661Z,100701.20
2022-08-02T19:45:49.035Z,100702.09
2022-08-02T19:48:23.874Z,100699.16
2022-08-02T19:50:59.244Z,100700.77
2022-08-02T19:56:25.180Z,100701.95
2022-08-02T19:58:57.796Z,100702.55
2022-08-02T20:01:36.964Z,100702.18
2022-08-02T20:04:12.929Z,100706.38
2022-08-02T20:06:46.105Z,100705.77
2022-08-02T20:09:21.236Z,100702.95
2022-08-02T20:11:54.376Z,100703.11
2022-08-02T20:14:27.369Z,100703.50
2022-08-02T20:16:57.395Z,100706.35
2022-08-02T20:19:29.567Z,100707.64
2022-08-02T20:22:09.409Z,100707.48
2022-08-02T20:24:38.284Z,100705.45
2022-08-02T20:27:07.894Z,100705.93
2022-08-02T20:29:43.030Z,100701.96
2022-08-02T20:32:17.474Z,100701.42
2022-08-02T20:34:48.659Z,100704.90
2022-08-02T20:37:59.455Z,100704.11
2022-08-02T20:40:07.271Z,100702.18
2022-08-02T20:42:36.126Z,100698.02
2022-08-02T20:45:05.921Z,100694.02
2022-08-02T20:47:40.006Z,100691.21
2022-08-02T20:53:18.396Z,100691.69
2022-08-02T20:55:54.661Z,100688.41
2022-08-02T20:58:27.358Z,100685.24
2022-08-02T21:00:59.920Z,100688.69
2022-08-02T21:03:38.899Z,100683.78
2022-08-02T21:06:10.185Z,100684.60
2022-08-02T21:08:39.477Z,100679.48
2022-08-02T21:11:09.182Z,100678.91
2022-08-02T21:13:47.349Z,100680.02
2022-08-02T21:16:26.607Z,100675.72
2022-08-02T21:19:00.174Z,100676.38
2022-08-02T21:21:29.822Z,100680.02
2022-08-02T21:24:00.261Z,100675.33
2022-08-02T21:26:30.995Z,100673.45
2022-08-02T21:29:03.491Z,100669.27
2022-08-02T21:31:35.775Z,100666.64
2022-08-02T21:34:07.571Z,100666.62
2022-08-02T21:36:51.038Z,100667.77
2022-08-02T21:39:20.658Z,100666.95
2022-08-02T21:41:49.464Z,100666.92
2022-08-02T21:44:20.381Z,100669.34
2022-08-02T21:46:51.748Z,100672.45
2022-08-02T21:49:27.418Z,100678.52
2022-08-02T21:52:11.246Z,100675.42
2022-08-02T21:54:40.833Z,100674.14
2022-08-02T21:57:16.585Z,100670.38
2022-08-02T21:59:46.690Z,100671.71
2022-08-02T22:02:18.411Z,100676.88
2022-08-02T22:04:47.775Z,100672.40
2022-08-02T22:07:24.351Z,100673.38
2022-08-02T22:09:53.558Z,100675.84
2022-08-02T22:12:26.421Z,100677.57
2022-08-02T22:14:56.501Z,100679.15
2022-08-02T22:17:51.424Z,100680.00
2022-08-02T22:20:18.238Z,100677.79
2022-08-02T22:22:50.083Z,100676.45
2022-08-02T22:25:27.230Z,100676.08
2022-08-02T22:28:36.023Z,100676.02
2022-08-02T22:30:56.795Z,100675.48
2022-08-02T22:33:47.265Z,100677.39
2022-08-02T22:36:30.516Z,100678.65
2022-08-02T22:39:00.444Z,100679.98
2022-08-02T22:42:01.568Z,100679.11
2022-08-02T22:44:18.785Z,100685.54
2022-08-02T22:46:49.995Z,100684.65
2022-08-02T22:49:36.979Z,100684.14
2022-08-02T22:52:07.858Z,100687.84
2022-08-02T22:54:36.707Z,100689.25
2022-08-02T22:57:06.650Z,100687.17
2022-08-02T22:58:53.720Z,100700.68
2022-08-02T22:59:05.254Z,100699.88
2022-08-02T22:59:05.255Z,100690.23
2022-08-02T22:59:36.047Z,100693.05
2022-08-02T23:02:10.406Z,100690.05
2022-08-02T23:04:38.853Z,100686.91
2022-08-02T23:07:07.154Z,100686.61
2022-08-02T23:09:36.107Z,100688.05
2022-08-02T23:12:05.114Z,100689.52
2022-08-02T23:14:33.397Z,100686.79
2022-08-02T23:17:20.903Z,100683.35
2022-08-02T23:19:51.853Z,100685.83
2022-08-02T23:22:29.959Z,100684.98
2022-08-02T23:25:01.508Z,100677.66
2022-08-02T23:27:31.765Z,100680.36
2022-08-02T23:30:01.050Z,100678.63
2022-08-02T23:32:29.376Z,100676.21
2022-08-02T23:34:58.973Z,100673.77
2022-08-02T23:37:27.379Z,100673.39
2022-08-02T23:39:55.691Z,100671.08
2022-08-02T23:42:25.664Z,100670.30
2022-08-02T23:44:54.387Z,100668.96
2022-08-02T23:47:22.622Z,100668.27
2022-08-02T23:49:51.553Z,100663.03
2022-08-02T23:52:20.248Z,100663.69
2022-08-02T23:54:48.466Z,100657.38
2022-08-02T23:57:20.087Z,100657.42
2022-08-02T23:59:52.734Z,100655.73
